^^
Station Historical Data
Daily Summary for April 20, 2017 Units:  Metric    English   Both
« Previous Day
Next Day »
Daily Weekly Monthly Yearly Custom
  High: Low: Average:
Temperature: 30.9 °C 22.5 °C 27.3 °C
Dew Point: 1.4 °C -5.5 °C -1.3 °C
Humidity: 22% 12% 15%
Wind Speed: 22.7km/h 0km/h 3.2km/h
Wind Gust: 27.4km/h - -
Wind- - East
Pressure: 1015.1 hPa 1011.7 hPa -
Precipitation: 0 mm    
Historical Graphs
 
 
Tabular Data for April 20, 2017
Time Temperature Dew Point Pressure Wind Wind Speed Wind Gust Humidity Rainfall Rate (Hourly) solar Conditions
08:43 24.5 °C 1.4 °C 1015.1 hPa Calm     22% 0 mm 476.0 W/m2
08:53 25.1 °C 1.2 °C 1015.1 hPa Calm     21% 0 mm 490.0 W/m2
09:03 25.7 °C 1.1 °C 1015.1 hPa Calm     20% 0 mm 538.0 W/m2
09:13 25.9 °C 1.2 °C 1015.1 hPa Calm     20% 0 mm 575.0 W/m2
09:29 26.2 °C 0.8 °C 1015.1 hPa Calm     19% 0 mm 584.0 W/m2
09:39 26.8 °C 1.2 °C 1015.1 hPa Calm     19% 0 mm 603.0 W/m2
09:54 27.1 °C 0.7 °C 1015.1 hPa Calm     18% 0 mm 677.0 W/m2
10:05 27.1 °C 0.7 °C 1014.8 hPa Calm     18% 0 mm 700.0 W/m2
10:15 27.7 °C 0.4 °C 1014.8 hPa Calm     17% 0 mm 756.0 W/m2
10:25 27.9 °C 0.6 °C 1014.8 hPa ESE 6.4 km/h 8 km/h 17% 0 mm 654.0 W/m2
10:46 27.9 °C 0.6 °C 1014.4 hPa Calm     17% 0 mm 643.0 W/m2
10:56 28.5 °C 1.1 °C 1014.4 hPa Calm   1.6 km/h 17% 0 mm 566.0 W/m2
11:06 28.4 °C 1 °C 1014.4 hPa Calm   6.4 km/h 17% 0 mm 589.0 W/m2
11:16 28.5 °C 1.1 °C 1014.1 hPa ESE 1.4 km/h 6.4 km/h 17% 0 mm 700.0 W/m2
11:26 28.3 °C 0.9 °C 1014.1 hPa ESE 4.7 km/h 9.7 km/h 17% 0 mm 476.0 W/m2
11:36 28.2 °C 0 °C 1013.8 hPa Calm     16% 0 mm 450.0 W/m2
11:47 28.2 °C 0.8 °C 1013.8 hPa Calm     17% 0 mm 434.0 W/m2
11:57 28.1 °C -0.1 °C 1013.4 hPa ESE 1.4 km/h 1.6 km/h 16% 0 mm 320.0 W/m2
12:28 27.9 °C -0.2 °C 1013.1 hPa ESE 1.4 km/h 4.8 km/h 16% 0 mm 385.0 W/m2
12:43 28.6 °C 0.3 °C 1012.8 hPa East 4.7 km/h 8 km/h 16% 0 mm 621.0 W/m2
13:03 28.8 °C -0.4 °C 1012.8 hPa Calm   8 km/h 15% 0 mm 427.0 W/m2
13:13 28.7 °C -0.5 °C 1012.4 hPa Calm   6.4 km/h 15% 0 mm 471.0 W/m2
13:19 28.8 °C -0.4 °C 1012.4 hPa Calm     15% 0 mm 563.0 W/m2
13:30 29.1 °C -0.2 °C 1012.4 hPa Calm   4.8 km/h 15% 0 mm 687.0 W/m2
13:40 29.8 °C -0.6 °C 1012.1 hPa East 6.4 km/h 6.4 km/h 14% 0 mm 668.0 W/m2
13:45 29.9 °C -0.5 °C 1012.1 hPa ENE 9.7 km/h 16.1 km/h 14% 0 mm 650.0 W/m2
13:55 29.8 °C -0.6 °C 1012.1 hPa ENE 4.7 km/h 8 km/h 14% 0 mm 624.0 W/m2
14:11 29.9 °C -0.5 °C 1012.1 hPa Calm   8 km/h 14% 0 mm 585.0 W/m2
14:26 30.4 °C -1.1 °C 1011.7 hPa Calm     13% 0 mm 545.0 W/m2
14:41 30.3 °C -1.2 °C 1011.7 hPa Calm     13% 0 mm 499.0 W/m2
14:57 30.3 °C -1.2 °C 1011.7 hPa ENE 9.7 km/h 14.5 km/h 13% 0 mm 457.0 W/m2
15:12 30.5 °C -1 °C 1011.7 hPa Calm     13% 0 mm 410.0 W/m2
15:27 30.3 °C -1.2 °C 1011.7 hPa Calm     13% 0 mm 364.0 W/m2
15:44 30.6 °C -2 °C 1011.7 hPa Calm     12% 0 mm 313.0 W/m2
15:48 30.9 °C -0.7 °C 1011.7 hPa Calm     13% 0 mm 295.0 W/m2
15:57 30.9 °C -1.8 °C 1011.7 hPa Calm   1.6 km/h 12% 0 mm 279.0 W/m2
16:08 30.9 °C -1.8 °C 1011.7 hPa Calm     12% 0 mm 243.0 W/m2
16:14 30.6 °C -2 °C 1011.7 hPa Calm     12% 0 mm 202.0 W/m2
16:29 30.3 °C -1.2 °C 1011.7 hPa Calm   1.6 km/h 13% 0 mm 135.0 W/m2
16:48 30.1 °C -1.3 °C 1011.7 hPa Calm     13% 0 mm 77.0 W/m2
16:55 29.8 °C -1.6 °C 1011.7 hPa Calm     13% 0 mm 33.0 W/m2
17:09 29.2 °C -1 °C 1011.7 hPa Calm     14% 0 mm 11.0 W/m2
17:19 28.6 °C -1.5 °C 1011.7 hPa Calm     14% 0 mm 5.0 W/m2
17:28 28.2 °C -0.9 °C 1011.7 hPa Calm     15% 0 mm 0.0 W/m2
17:37 27.9 °C -1.1 °C 1011.7 hPa Calm     15% 0 mm 0.0 W/m2
17:43 27.7 °C -1.3 °C 1011.7 hPa Calm     15% 0 mm 0.0 W/m2
17:46 27.5 °C -1.4 °C 1012.1 hPa Calm     15% 0 mm 0.0 W/m2
17:56 27.1 °C -0.9 °C 1012.1 hPa Calm     16% 0 mm 0.0 W/m2
18:06 26.5 °C -1.4 °C 1012.1 hPa Calm     16% 0 mm 0.0 W/m2
18:27 25.7 °C -1.2 °C 1012.1 hPa Calm     17% 0 mm 0.0 W/m2
18:37 24.7 °C -2 °C 1012.4 hPa Calm     17% 0 mm 0.0 W/m2
18:52 24.3 °C -1.5 °C 1012.8 hPa Calm     18% 0 mm 0.0 W/m2
19:08 23.9 °C -4.3 °C 1012.8 hPa ENE 9.7 km/h 11.3 km/h 15% 0 mm 0.0 W/m2
19:28 24.7 °C -4.6 °C 1012.8 hPa ENE 4.7 km/h 4.8 km/h 14% 0 mm 0.0 W/m2
19:38 24.1 °C -5.1 °C 1012.8 hPa Calm     14% 0 mm 0.0 W/m2
19:54 23.2 °C -4.9 °C 1013.1 hPa ENE 1.4 km/h 8 km/h 15% 0 mm 0.0 W/m2
20:09 23.5 °C -5.5 °C 1013.1 hPa ENE 11.1 km/h 12.9 km/h 14% 0 mm 0.0 W/m2
20:23 24.1 °C -5.1 °C 1013.1 hPa ENE 7.9 km/h 17.7 km/h 14% 0 mm 0.0 W/m2
20:33 24.3 °C -4.9 °C 1013.1 hPa ENE 13 km/h 17.7 km/h 14% 0 mm 0.0 W/m2
20:44 24.1 °C -5.1 °C 1013.1 hPa ENE 11.1 km/h 16.1 km/h 14% 0 mm 0.0 W/m2
20:55 23.8 °C -5.3 °C 1013.1 hPa ENE 14.3 km/h 16.1 km/h 14% 0 mm 0.0 W/m2
21:09 24 °C -4.2 °C 1013.1 hPa East 17.7 km/h 20.9 km/h 15% 0 mm 0.0 W/m2
21:14 23.6 °C -4.6 °C 1013.4 hPa East 22.7 km/h 27.4 km/h 15% 0 mm 0.0 W/m2
21:28 23.4 °C -3.9 °C 1013.4 hPa East 19.5 km/h 25.7 km/h 16% 0 mm 0.0 W/m2
21:38 23.2 °C -4 °C 1013.4 hPa East 14.3 km/h 20.9 km/h 16% 0 mm 0.0 W/m2
21:48 22.8 °C -3.5 °C 1013.4 hPa East 13 km/h 17.7 km/h 17% 0 mm 0.0 W/m2
21:55 22.5 °C -3.8 °C 1013.4 hPa East 3.2 km/h 9.7 km/h 17% 0 mm 0.0 W/m2
Canyon Roadhouse, Fishriver Canyon, Namibia
Compliments of Weather Underground - 2 mb